Aérodrome :
LOGIN :

S'inscrire | Disclaimer

   EN    FR    IT 

 










Légende :    VFR   VFR Marginal   IFR   IFR Intensif   IFR Très Intensif
Visi : 
Plafond : 
>= 8 km
>= 3000ft
5 à 8 km
1000 à 3000 ft
1500m à 5 km
500 à 1000 ft
800 à 1500m
200 à 500 ft
< 800m
< 200 ft
Symboles :   Orages  Brouillard  Fortes neiges  Fortes précipitations  Vent > 20 kt
SIGMETs :   Divers  Orages  Givrage  Turbulence  Onde Orograph.  Cendres Volcan.







- Altitude de l'aérodrome : 7 ft
- Code IATA : ESH
- Voir les cartes d'approche


EGKA - Shoreham

DERNIER METAR :
  • 261820Z 10013KT CAVOK 24/12 Q1013

METARs EXPIRÉS :
  • 261750Z 11011KT CAVOK 25/12 Q1014
  • 261720Z 11012KT CAVOK 24/13 Q1014
  • 261650Z 11013KT CAVOK 25/13 Q1014
  • 261620Z 11012KT CAVOK 25/13 Q1015
  • 261550Z 12012KT CAVOK 25/13 Q1015

TAF TAF EGKA
Valide du 26 à 15h jusqu'au 26 à 19h UTC


261359Z 2615/2619 11013KT CAVOK
ATIS : +44 1273 467 372
Pas de NOTAMs connus pour ce terrain.



MET'MAP, la Météo Aéronautique d'un coup d'oeil ! - Copyright ORBIFLY Décembre 2007 - Disclaimer

ORBIFLY MET'MAP TEAM :

Programmation & Développement : Alexandra Zaïnal
Conception & Développement : Baudouin d'Aumeries
Co-Programmation & Développement : Marc-Olivier Méhu
Soutien technique & logistique : Manuel Goepfert

Contact : metmap@orbifly.com




SOURCES & CREDITS :

   NOAA